Terminal Aerodrome Forecast
Issued by NWS

Home | Current Version | Previous Version | Text Only | Print | Product List | Glossary On
Versions: 1 2 3 4 5 6 7 8 9 10 11 12 13 14 15 16 17 18 19 20
222
FTAK31 PAJN 092027 AAB
TAFAKT
TAF AMD
PAKT 092027Z 0920/1018 VRB06KT P6SM VCFG SCT006 BKN035 BKN050
      TEMPO 0920/0922 1/4SM FG BKN001
     FM100600 12012G20KT 6SM -RA SCT020 BKN035 OVC050 WS020/15040KT
     FM100900 14015G25KT 4SM -RA BR FEW006 SCT010 OVC025
      WS020/15040KT
     FM101600 16012G20KT P6SM -SHRA SCT025 BKN040 OVC060=

USA.gov is the U.S. government's official web portal to all federal, state and local government web resources and services.